createdAt,value
2024-01-27T00:01:47.434Z,10.20
2024-01-27T00:05:50.444Z,10.20
2024-01-27T00:09:53.510Z,10.30
2024-01-27T00:13:57.280Z,10.30
2024-01-27T00:18:00.490Z,10.30
2024-01-27T00:22:03.589Z,10.40
2024-01-27T00:26:06.876Z,10.50
2024-01-27T00:30:11.532Z,10.40
2024-01-27T00:34:14.632Z,10.30
2024-01-27T00:38:20.299Z,10.10
2024-01-27T00:42:25.978Z,10.00
2024-01-27T00:46:29.240Z,10.00
2024-01-27T00:50:32.457Z,9.90
2024-01-27T00:54:35.745Z,9.90
2024-01-27T00:58:38.746Z,9.80
2024-01-27T01:02:44.916Z,9.80
2024-01-27T01:06:48.145Z,9.80
2024-01-27T01:10:51.191Z,9.80
2024-01-27T01:14:54.818Z,9.90
2024-01-27T01:18:57.934Z,9.80
2024-01-27T01:23:01.206Z,9.80
2024-01-27T01:27:07.275Z,9.80
2024-01-27T01:31:10.767Z,9.80
2024-01-27T01:35:14.134Z,9.80
2024-01-27T01:39:26.469Z,9.80
2024-01-27T01:43:29.616Z,9.80
2024-01-27T01:47:32.811Z,9.80
2024-01-27T01:51:36.064Z,9.80
2024-01-27T01:55:39.184Z,9.80
2024-01-27T01:59:42.892Z,9.80
2024-01-27T02:03:59.085Z,9.80
2024-01-27T02:08:05.473Z,9.80
2024-01-27T02:12:08.707Z,9.70
2024-01-27T02:16:14.900Z,9.80
2024-01-27T02:20:18.038Z,9.80
2024-01-27T02:24:21.398Z,9.70
2024-01-27T02:28:26.397Z,9.60
2024-01-27T02:32:29.368Z,9.60
2024-01-27T02:36:32.449Z,9.60
2024-01-27T02:40:35.565Z,9.60
2024-01-27T02:44:42.210Z,9.60
2024-01-27T02:48:46.376Z,9.50
2024-01-27T02:52:49.448Z,9.50
2024-01-27T02:56:52.540Z,9.50
2024-01-27T03:00:55.552Z,9.50
2024-01-27T03:04:58.733Z,9.40
2024-01-27T03:09:01.941Z,9.40
2024-01-27T03:13:05.198Z,9.30
2024-01-27T03:17:08.711Z,9.30
2024-01-27T03:21:11.822Z,9.30
2024-01-27T03:25:17.115Z,9.30
2024-01-27T03:29:20.280Z,9.30
2024-01-27T03:33:24.353Z,9.30
2024-01-27T03:37:28.186Z,9.40
2024-01-27T03:41:31.378Z,9.50
2024-01-27T03:45:34.550Z,9.40
2024-01-27T03:49:38.937Z,9.20
2024-01-27T03:53:42.269Z,9.20
2024-01-27T03:57:45.445Z,9.20
2024-01-27T04:01:49.155Z,9.10
2024-01-27T04:05:57.853Z,9.00
2024-01-27T04:10:03.156Z,8.90
2024-01-27T04:14:09.276Z,8.80
2024-01-27T04:18:16.685Z,8.70
2024-01-27T04:22:23.585Z,8.60
2024-01-27T04:26:26.836Z,8.40
2024-01-27T04:30:30.672Z,8.30
2024-01-27T04:34:35.023Z,8.00
2024-01-27T04:38:38.233Z,7.90
2024-01-27T04:42:41.534Z,7.70
2024-01-27T04:46:44.714Z,7.50
2024-01-27T04:50:48.356Z,7.50
2024-01-27T04:54:53.753Z,7.40
2024-01-27T04:58:56.793Z,7.20
2024-01-27T05:03:04.724Z,7.10
2024-01-27T05:07:12.995Z,7.10
2024-01-27T05:11:26.339Z,7.00
2024-01-27T05:15:29.673Z,7.00
2024-01-27T05:19:33.099Z,6.90
2024-01-27T05:23:36.169Z,6.90
2024-01-27T05:27:39.974Z,6.90
2024-01-27T05:31:45.036Z,6.80
2024-01-27T05:35:48.149Z,6.70
2024-01-27T05:39:51.671Z,6.60
2024-01-27T05:43:57.803Z,6.60
2024-01-27T05:48:01.875Z,6.60
2024-01-27T05:52:05.389Z,6.40
2024-01-27T05:56:10.688Z,6.40
2024-01-27T06:00:14.835Z,6.30
2024-01-27T06:04:17.914Z,6.30
2024-01-27T06:08:21.393Z,6.40
2024-01-27T06:12:24.598Z,6.40
2024-01-27T06:16:28.071Z,6.30
2024-01-27T06:20:33.493Z,6.20
2024-01-27T06:24:36.695Z,6.20
2024-01-27T06:28:44.434Z,6.20
2024-01-27T06:32:49.013Z,6.20
2024-01-27T06:36:52.290Z,6.20
2024-01-27T06:40:55.573Z,6.20
2024-01-27T06:44:59.094Z,6.10
2024-01-27T06:49:03.320Z,6.10
2024-01-27T06:53:07.878Z,6.00
2024-01-27T06:57:20.257Z,5.90
2024-01-27T07:01:23.360Z,6.00
2024-01-27T07:05:27.156Z,5.90
2024-01-27T07:09:30.270Z,6.00
2024-01-27T07:13:33.757Z,6.00
2024-01-27T07:17:37.130Z,5.90
2024-01-27T07:21:40.263Z,5.90
2024-01-27T07:25:43.266Z,5.90
2024-01-27T07:29:47.680Z,5.90
2024-01-27T07:33:50.862Z,5.90
2024-01-27T07:37:54.097Z,5.90
2024-01-27T07:42:02.994Z,5.90
2024-01-27T07:46:06.100Z,6.00
2024-01-27T07:50:10.748Z,6.10
2024-01-27T07:54:14.790Z,6.20
2024-01-27T07:58:17.619Z,6.40
2024-01-27T08:02:20.728Z,6.60
2024-01-27T08:06:30.769Z,6.90
2024-01-27T08:10:33.855Z,7.10
2024-01-27T08:14:37.223Z,7.40
2024-01-27T08:18:43.786Z,7.60
2024-01-27T09:05:29.450Z,8.50
2024-01-27T09:09:33.018Z,8.60
2024-01-27T09:13:36.411Z,9.00
2024-01-27T09:17:39.625Z,9.20
2024-01-27T09:21:45.612Z,9.50
2024-01-27T09:25:48.772Z,9.80
2024-01-27T09:29:51.933Z,10.10
2024-01-27T09:33:55.627Z,10.40
2024-01-27T09:38:00.813Z,10.60
2024-01-27T09:42:08.141Z,10.80
2024-01-27T09:46:12.151Z,11.00
2024-01-27T09:50:18.869Z,11.20
2024-01-27T09:54:22.058Z,11.50
2024-01-27T09:58:29.543Z,11.50
2024-01-27T10:02:34.101Z,11.50
2024-01-27T10:06:37.616Z,11.60
2024-01-27T10:10:40.526Z,11.80
2024-01-27T10:14:49.241Z,11.90
2024-01-27T10:19:05.575Z,12.10
2024-01-27T10:23:13.108Z,12.30
2024-01-27T10:27:16.451Z,12.40
2024-01-27T10:31:20.707Z,12.50
2024-01-27T10:35:23.662Z,12.50
2024-01-27T10:39:26.687Z,12.50
2024-01-27T10:43:32.716Z,12.60
2024-01-27T10:47:37.915Z,12.70
2024-01-27T10:51:45.250Z,12.80
2024-01-27T10:55:49.264Z,12.80
2024-01-27T10:59:54.852Z,13.00
2024-01-27T11:03:58.635Z,13.30
2024-01-27T11:08:02.036Z,13.50
2024-01-27T11:12:06.307Z,13.70
2024-01-27T11:16:18.677Z,14.00
2024-01-27T11:20:21.613Z,14.20
2024-01-27T11:24:25.559Z,14.40
2024-01-27T11:28:28.705Z,14.60
2024-01-27T11:32:32.545Z,14.70
2024-01-27T11:36:36.394Z,14.90
2024-01-27T11:40:49.055Z,15.10
2024-01-27T11:44:52.184Z,15.30
2024-01-27T11:48:57.084Z,15.50
2024-01-27T11:53:00.175Z,15.70
2024-01-27T11:57:03.049Z,15.80
2024-01-27T12:01:06.179Z,16.00
2024-01-27T12:05:13.496Z,16.00
2024-01-27T12:09:18.083Z,16.10
2024-01-27T12:13:20.927Z,16.30
2024-01-27T12:17:24.317Z,16.30
2024-01-27T12:21:27.401Z,16.30
2024-01-27T12:25:30.643Z,16.40
2024-01-27T12:29:35.205Z,16.50
2024-01-27T12:33:38.324Z,16.50
2024-01-27T12:37:41.493Z,16.60
2024-01-27T12:41:44.829Z,16.80
2024-01-27T12:45:48.177Z,17.00
2024-01-27T12:49:51.765Z,17.30
2024-01-27T12:53:54.942Z,17.50
2024-01-27T12:57:58.678Z,17.50
2024-01-27T13:02:01.494Z,17.40
2024-01-27T13:06:04.857Z,17.50
2024-01-27T13:10:08.593Z,17.50
2024-01-27T13:14:15.758Z,17.40
2024-01-27T13:18:18.766Z,17.30
2024-01-27T13:22:25.464Z,17.20
2024-01-27T13:26:30.187Z,17.10
2024-01-27T13:30:33.194Z,17.10
2024-01-27T13:34:36.218Z,17.00
2024-01-27T13:38:39.097Z,17.10
2024-01-27T13:42:42.108Z,17.10
2024-01-27T13:46:45.033Z,17.10
2024-01-27T13:50:47.994Z,17.20
2024-01-27T13:54:50.956Z,17.20
2024-01-27T13:58:56.058Z,17.30
2024-01-27T14:03:02.002Z,17.30
2024-01-27T14:07:07.891Z,17.30
2024-01-27T14:11:11.821Z,17.30
2024-01-27T14:15:16.209Z,17.40
2024-01-27T14:19:19.323Z,17.50
2024-01-27T14:23:22.282Z,17.50
2024-01-27T14:27:28.548Z,17.50
2024-01-27T14:31:31.787Z,17.50
2024-01-27T14:35:35.327Z,17.60
2024-01-27T14:39:38.417Z,17.60
2024-01-27T14:43:41.223Z,17.50
2024-01-27T14:47:45.050Z,17.50
2024-01-27T14:51:48.041Z,17.50
2024-01-27T14:55:51.441Z,17.60
2024-01-27T14:59:54.561Z,17.50
2024-01-27T15:03:58.146Z,17.60
2024-01-27T15:08:05.738Z,17.70
2024-01-27T15:12:14.416Z,17.80
2024-01-27T15:16:18.369Z,17.80
2024-01-27T15:20:21.407Z,17.80
2024-01-27T15:24:24.279Z,17.80
2024-01-27T15:28:27.120Z,17.80
2024-01-27T15:32:30.186Z,17.80
2024-01-27T15:36:33.082Z,17.70
2024-01-27T15:40:36.025Z,17.60
2024-01-27T15:44:39.237Z,17.60
2024-01-27T15:48:42.458Z,17.60
2024-01-27T15:52:45.415Z,17.60
2024-01-27T15:56:48.393Z,17.50
2024-01-27T16:00:51.836Z,17.30
2024-01-27T16:04:54.938Z,17.10
2024-01-27T16:08:57.983Z,16.80
2024-01-27T16:13:01.022Z,16.50
2024-01-27T16:17:04.002Z,16.20
2024-01-27T16:21:06.868Z,15.80
2024-01-27T16:25:10.079Z,15.40
2024-01-27T16:29:13.146Z,15.00
2024-01-27T16:33:16.078Z,14.60
2024-01-27T16:37:20.093Z,14.30
2024-01-27T16:41:23.372Z,14.00
2024-01-27T16:45:26.513Z,13.70
2024-01-27T16:49:30.073Z,13.60
2024-01-27T16:53:35.333Z,13.40
2024-01-27T16:57:38.357Z,13.20
2024-01-27T17:01:41.419Z,13.10
2024-01-27T17:05:53.041Z,13.00
2024-01-27T17:10:02.610Z,12.90
2024-01-27T17:14:21.642Z,12.80
2024-01-27T17:18:24.998Z,12.60
2024-01-27T17:22:28.335Z,12.40
2024-01-27T17:26:34.045Z,12.20
2024-01-27T17:30:39.879Z,12.00
2024-01-27T17:34:44.089Z,12.00
2024-01-27T17:38:47.287Z,11.90
2024-01-27T17:42:50.503Z,11.80
2024-01-27T17:46:53.909Z,11.70
2024-01-27T17:50:57.133Z,11.50
2024-01-27T17:55:00.373Z,11.50
2024-01-27T17:59:03.609Z,11.50
2024-01-27T18:03:07.657Z,11.40
2024-01-27T18:07:10.772Z,11.30
2024-01-27T18:11:13.903Z,11.10
2024-01-27T18:15:16.928Z,10.90
2024-01-27T18:19:22.806Z,10.80
2024-01-27T18:23:26.043Z,10.70
2024-01-27T18:27:29.031Z,10.50
2024-01-27T18:31:32.540Z,10.30
2024-01-27T18:35:37.390Z,10.30
2024-01-27T18:39:41.583Z,10.20
2024-01-27T18:43:45.034Z,10.20
2024-01-27T18:47:48.089Z,10.30
2024-01-27T18:51:51.279Z,10.30
2024-01-27T18:55:54.320Z,10.20
2024-01-27T18:59:57.411Z,10.20
2024-01-27T19:04:00.596Z,10.20
2024-01-27T19:08:04.626Z,10.10
2024-01-27T19:12:08.554Z,10.10
2024-01-27T19:16:11.657Z,10.10
2024-01-27T19:20:14.866Z,10.10
2024-01-27T19:24:17.999Z,10.10
2024-01-27T19:28:21.019Z,10.10
2024-01-27T19:32:24.031Z,10.10
2024-01-27T19:36:27.046Z,10.00
2024-01-27T19:40:30.276Z,10.00
2024-01-27T19:44:33.466Z,9.80
2024-01-27T19:48:36.730Z,9.80
2024-01-27T19:52:39.846Z,9.60
2024-01-27T19:56:42.745Z,9.40
2024-01-27T20:00:45.762Z,9.10
2024-01-27T20:04:49.837Z,9.00
2024-01-27T20:08:54.322Z,8.80
2024-01-27T20:13:01.635Z,8.70
2024-01-27T20:17:04.571Z,8.60
2024-01-27T20:21:07.576Z,8.60
2024-01-27T20:25:10.999Z,8.60
2024-01-27T20:29:13.931Z,8.60
2024-01-27T20:33:17.287Z,8.70
2024-01-27T20:37:20.568Z,8.60
2024-01-27T20:41:23.490Z,8.50
2024-01-27T20:45:31.990Z,8.40
2024-01-27T20:49:35.124Z,8.20
2024-01-27T20:53:38.764Z,8.10
2024-01-27T20:57:45.020Z,8.00
2024-01-27T21:01:48.385Z,8.00
2024-01-27T21:05:51.872Z,7.90
2024-01-27T21:09:54.785Z,7.90
2024-01-27T21:13:58.781Z,7.80
2024-01-27T21:18:02.758Z,7.70
2024-01-27T21:22:05.691Z,7.70
2024-01-27T21:26:08.473Z,7.80
2024-01-27T21:30:12.318Z,7.70
2024-01-27T21:34:15.436Z,7.60
2024-01-27T21:38:18.458Z,7.50
2024-01-27T21:42:27.693Z,7.30
2024-01-27T21:46:30.763Z,7.10
2024-01-27T21:50:34.736Z,7.00
2024-01-27T21:54:43.703Z,6.80
2024-01-27T21:58:46.651Z,6.80
2024-01-27T22:02:50.610Z,6.70
2024-01-27T22:06:54.379Z,6.60
2024-01-27T22:10:57.197Z,6.60
2024-01-27T22:15:00.336Z,6.80
2024-01-27T22:19:03.701Z,6.90
2024-01-27T22:23:08.012Z,7.00
2024-01-27T22:27:12.162Z,6.90
2024-01-27T22:31:16.205Z,6.80
2024-01-27T22:35:20.170Z,6.80
2024-01-27T22:39:23.123Z,6.80
2024-01-27T22:43:28.456Z,6.80
2024-01-27T22:47:32.578Z,6.60
2024-01-27T22:51:36.263Z,6.50
2024-01-27T22:55:43.538Z,6.50
2024-01-27T22:59:48.119Z,6.30
2024-01-27T23:03:51.647Z,6.10
2024-01-27T23:07:54.947Z,6.10
2024-01-27T23:11:58.140Z,6.00
2024-01-27T23:16:02.029Z,6.00
2024-01-27T23:20:06.057Z,6.00
2024-01-27T23:24:10.179Z,6.00
2024-01-27T23:28:14.602Z,6.00
2024-01-27T23:32:17.820Z,5.90
2024-01-27T23:36:20.953Z,5.80
2024-01-27T23:40:25.518Z,5.80
2024-01-27T23:44:30.363Z,5.80
2024-01-27T23:48:33.664Z,6.00
2024-01-27T23:52:39.069Z,6.10
2024-01-27T23:56:43.341Z,6.30
